Ocean Majesty — CQSC — position and weather

sailwx.info

Track history (hours):
 
Tides and Currents Weather Stations Pressure Air Temp Water Temp Dewpoint Dewpoint Depression Visibility Wind Speed Wind Dir Waves Ship Positions

Ocean Majesty

Last reported at 2017-Aug-17 02:20 UTC. Time now 2017-Aug-21 19:21 UTC.
Position N 55°00' E 006°27'.

Length 136 m; draft 6.3 m.

Type: Passenger vessel. MMSI: 255717000.

Date/timePositionNaut miles runAvg speedWind from/ knotsBaromVisibWave heightAir tempDewpointWater temp
2017-Aug-17 02:20N 55°00' E 006°27'615.4
2017-Aug-17 01:58N 54°56' E 006°33'715.4
2017-Aug-17 01:30N 54°50' E 006°41'815.4
2017-Aug-17 01:00N 54°44' E 006°49'815.5
2017-Aug-17 00:30N 54°38' E 006°57'815.6
2017-Aug-17 00:00N 54°32' E 007°06'3316.1
2017-Aug-16 21:59N 54°08' E 007°44'816.8
2017-Aug-16 21:30N 54°04' E 007°56'816.9
2017-Aug-16 21:01N 54°01' E 008°09'714.1
2017-Aug-16 20:30N 53°60' E 008°21'917.2
2017-Aug-16 20:00N 53°58' E 008°35'815.0
2017-Aug-16 19:30N 53°52' E 008°43'612.2
2017-Aug-16 19:00N 53°51' E 008°53'713.2
2017-Aug-16 18:30N 53°52' E 009°04'611.5
2017-Aug-16 18:00N 53°53' E 009°14'611.9
2017-Aug-16 17:30N 53°49' E 009°22'612.3
2017-Aug-16 17:00N 53°44' E 009°27'611.8
2017-Aug-16 16:30N 53°39' E 009°31'612.2
2017-Aug-16 16:00N 53°34' E 009°39'611.1
2017-Aug-16 15:31N 53°33' E 009°48'4 8.9
2017-Aug-16 15:01N 53°32' E 009°55'1 1.0
2017-Aug-16 14:26N 53°33' E 009°56'0 0.0
2017-Aug-16 13:59N 53°33' E 009°56'0 0.0
2017-Aug-16 13:29N 53°33' E 009°56'0 0.0
2017-Aug-16 12:59N 53°33' E 009°56'0 0.0
2017-Aug-16 12:29N 53°33' E 009°56'0 0.0
2017-Aug-16 11:59N 53°33' E 009°56'0 0.0
2017-Aug-16 11:29N 53°33' E 009°56'0 0.0
2017-Aug-16 10:59N 53°33' E 009°56'0 0.0
2017-Aug-16 10:29N 53°33' E 009°56'0 0.0
2017-Aug-16 09:59N 53°33' E 009°56'0 0.0
2017-Aug-16 09:29N 53°33' E 009°56'0 0.0
2017-Aug-16 08:59N 53°33' E 009°56'0 0.0
2017-Aug-16 08:29N 53°33' E 009°56'0 0.0
2017-Aug-16 07:59N 53°33' E 009°56'0 0.0
2017-Aug-16 07:29N 53°33' E 009°56'0 0.0
2017-Aug-16 06:59N 53°33' E 009°56'0 0.0
2017-Aug-16 06:29N 53°33' E 009°56'0 0.0
2017-Aug-16 05:59N 53°33' E 009°56'0 0.1
2017-Aug-16 05:30N 53°33' E 009°56'3 6.7
2017-Aug-16 05:00N 53°33' E 009°51'5 9.4
2017-Aug-16 04:31N 53°34' E 009°43'611.6
2017-Aug-16 04:01N 53°37' E 009°34'611.2
2017-Aug-16 03:30N 53°41' E 009°30'612.0
2017-Aug-16 03:00N 53°46' E 009°24'612.1
2017-Aug-16 02:31N 53°51' E 009°18'612.3
2017-Aug-16 02:01N 53°53' E 009°08'611.4
2017-Aug-16 01:31N 53°51' E 008°59'713.4
2017-Aug-16 01:00N 53°50' E 008°48'611.2
2017-Aug-16 00:30N 53°54' E 008°41'713.0
2017-Aug-16 00:00N 53°58' E 008°32'713.5
2017-Aug-15 23:30N 53°60' E 008°21'611.6
2017-Aug-15 23:00N 53°60' E 008°11'612.7
2017-Aug-15 22:30N 53°58' E 008°00'713.3
2017-Aug-15 22:00N 53°56' E 007°49'612.9
2017-Aug-15 21:30N 53°55' E 007°39'612.7
2017-Aug-15 21:00N 53°53' E 007°28'6912.8
2017-Aug-15 15:36N 53°35' E 005°36'313.3
2017-Aug-15 15:22N 53°34' E 005°30'513.1
2017-Aug-15 15:00N 53°33' E 005°23'713.2
2017-Aug-15 14:30N 53°31' E 005°12'713.7
2017-Aug-15 14:01N 53°29' E 005°02'1213.8
2017-Aug-15 13:08N 53°24' E 004°43'213.7
2017-Aug-15 12:59N 53°22' E 004°41'913.0
2017-Aug-15 12:19N 53°14' E 004°35'412.8
2017-Aug-15 12:00N 53°11' E 004°31'612.6
2017-Aug-15 11:30N 53°05' E 004°27'612.6
2017-Aug-15 11:00N 52°60' E 004°22'612.8
2017-Aug-15 10:30N 52°54' E 004°17'812.7
2017-Aug-15 09:52N 52°47' E 004°09'512.8
2017-Aug-15 09:27N 52°43' E 004°04'612.9
2017-Aug-15 08:59N 52°39' E 003°56'612.9
2017-Aug-15 08:30N 52°35' E 003°49'713.0
2017-Aug-15 08:00N 52°30' E 003°42'713.7
2017-Aug-15 07:30N 52°25' E 003°34'713.8
2017-Aug-15 07:00N 52°20' E 003°26'913.8
2017-Aug-15 06:22N 52°14' E 003°16'1313.6
2017-Aug-15 05:24N 52°05' E 002°60'1213.0
2017-Aug-15 04:28N 51°59' E 002°43'612.6
2017-Aug-15 04:00N 51°57' E 002°34'711.6
2017-Aug-15 03:25N 51°54' E 002°24'510.9
2017-Aug-15 03:00N 51°51' E 002°19'510.6
2017-Aug-15 02:29N 51°47' E 002°13'510.2
2017-Aug-15 02:00N 51°43' E 002°08'510.0
2017-Aug-15 01:30N 51°39' E 002°03'1010.3
2017-Aug-15 00:30N 51°33' E 001°50'510.6
2017-Aug-15 00:00N 51°30' E 001°43'611.2
2017-Aug-14 23:30N 51°28' E 001°34'4 9.0
2017-Aug-14 23:00N 51°24' E 001°30'4 7.6
2017-Aug-14 22:30N 51°27' E 001°27'815.6
2017-Aug-14 22:00N 51°29' E 001°14'713.9
2017-Aug-14 21:31N 51°30' E 001°03'714.6
2017-Aug-14 21:00N 51°29' E 000°51'35 2.3
2017-Aug-14 06:03N 51°30' W 000°05'0 0.0
2017-Aug-14 05:57N 51°30' W 000°05'0 0.0
2017-Aug-14 05:27N 51°30' W 000°05'0 0.0
2017-Aug-14 04:45N 51°30' W 000°05'0 0.0
2017-Aug-14 04:27N 51°30' W 000°05'0 0.0
2017-Aug-14 03:57N 51°30' W 000°05'0 0.0
2017-Aug-14 03:27N 51°30' W 000°05'0 0.0
2017-Aug-14 02:51N 51°30' W 000°05'39 2.9
2017-Aug-13 13:24N 51°29' E 000°57'512.9
2017-Aug-13 13:01N 51°30' E 001°06'712.9
2017-Aug-13 12:30N 51°29' E 001°16'612.2
2017-Aug-13 12:01N 51°28' E 001°26'5 9.1
2017-Aug-13 11:31N 51°25' E 001°30'4 7.7
2017-Aug-13 11:01N 51°22' E 001°35'611.6
2017-Aug-13 10:31N 51°16' E 001°37'510.9
2017-Aug-13 10:01N 51°11' E 001°36'510.8
2017-Aug-13 09:31N 51°06' E 001°39'611.9
2017-Aug-13 09:00N 51°01' E 001°33'611.9
2017-Aug-13 08:31N 50°56' E 001°28'5612.2
2017-Aug-13 03:57N 50°24' E 000°17'612.9
2017-Aug-13 03:31N 50°22' E 000°08'814.7
2017-Aug-13 02:58N 50°21' W 000°04'816.1
2017-Aug-13 02:30N 50°20' W 000°16'3617.8
2017-Aug-13 00:28N 50°16' W 001°12'919.0
2017-Aug-13 00:00N 50°16' W 001°26'1019.4
2017-Aug-12 23:31N 50°15' W 001°41'3319.2
2017-Aug-12 21:47N 50°13' W 002°33'618.1
2017-Aug-12 21:26N 50°12' W 002°43'817.7
2017-Aug-12 21:00N 50°12' W 002°54'917.4
2017-Aug-12 20:30N 50°12' W 003°08'917.0
2017-Aug-12 20:00N 50°10' W 003°21'816.9
2017-Aug-12 19:30N 50°10' W 003°34'816.8
2017-Aug-12 19:00N 50°09' W 003°47'816.7
2017-Aug-12 18:31N 50°12' W 003°60'816.2
2017-Aug-12 18:00N 50°14' W 004°12'816.0
2017-Aug-12 17:30N 50°16' W 004°24'815.5
2017-Aug-12 17:00N 50°18' W 004°36'2 0.3
2017-Aug-12 09:01N 50°20' W 004°38'0 0.2
2017-Aug-12 08:57N 50°20' W 004°38'2 4.6
2017-Aug-12 08:30N 50°18' W 004°39'510.5
2017-Aug-12 08:00N 50°13' W 004°42'612.6
2017-Aug-12 07:30N 50°08' W 004°48'812.8
2017-Aug-12 06:55N 50°02' W 004°54'612.6
2017-Aug-12 06:28N 49°57' W 004°60'613.1
2017-Aug-12 05:59N 49°56' W 005°09'1614.6
2017-Aug-12 04:54N 49°54' W 005°34'614.2
2017-Aug-12 04:28N 49°54' W 005°43'1113.3
2017-Aug-12 03:38N 49°56' W 005°60'813.6
2017-Aug-12 03:02N 50°04' W 006°00'113.6
2017-Aug-12 02:58N 50°05' W 006°00'613.1
2017-Aug-12 02:30N 50°11' W 006°01'612.8
2017-Aug-12 02:00N 50°18' W 006°01'1713.4
2017-Aug-12 00:45N 50°34' W 006°01'314.1
2017-Aug-12 00:31N 50°38' W 006°00'1014.0
2017-Aug-11 23:47N 50°48' W 005°60'613.7
2017-Aug-11 23:21N 50°54' W 005°60'2014.0
2017-Aug-11 21:56N 51°14' W 005°59'5013.9
2017-Aug-11 18:19N 52°04' W 005°52'515.3
2017-Aug-11 18:01N 52°08' W 005°51'815.5
2017-Aug-11 17:30N 52°16' W 005°50'815.9
2017-Aug-11 17:00N 52°24' W 005°50'916.4
2017-Aug-11 16:29N 52°33' W 005°51'79 5.4
2017-Aug-11 01:49N 53°52' W 005°41'513.3
2017-Aug-11 01:28N 53°56' W 005°38'813.1
2017-Aug-11 00:49N 54°04' W 005°33'412.9
2017-Aug-11 00:31N 54°08' W 005°30'612.9
2017-Aug-11 00:01N 54°14' W 005°26'612.7
2017-Aug-10 23:30N 54°19' W 005°22'612.2
2017-Aug-10 23:00N 54°25' W 005°19'613.0
2017-Aug-10 22:31N 54°32' W 005°22'713.6
2017-Aug-10 22:00N 54°38' W 005°25'612.8
2017-Aug-10 21:30N 54°43' W 005°32'613.0
2017-Aug-10 21:01N 54°42' W 005°43'611.2
2017-Aug-10 20:30N 54°39' W 005°51'2 3.0
2017-Aug-10 19:41N 54°37' W 005°54'0 0.0
2017-Aug-10 19:29N 54°37' W 005°54'0 0.0
2017-Aug-10 18:08N 54°37' W 005°54'0 0.0
2017-Aug-10 17:53N 54°37' W 005°54'0 0.0
2017-Aug-10 17:11N 54°37' W 005°54'0 0.0
2017-Aug-10 16:56N 54°37' W 005°54'0 0.0
2017-Aug-10 16:23N 54°37' W 005°54'0 0.0
2017-Aug-10 15:56N 54°37' W 005°54'0 0.0
2017-Aug-10 15:26N 54°37' W 005°54'0 0.0
2017-Aug-10 14:56N 54°37' W 005°54'0 0.0
2017-Aug-10 14:14N 54°37' W 005°54'0 0.0
2017-Aug-10 13:44N 54°37' W 005°54'0 0.0
2017-Aug-10 13:29N 54°37' W 005°54'0 0.0
2017-Aug-10 12:50N 54°37' W 005°54'0 0.0
2017-Aug-10 12:29N 54°37' W 005°54'0 0.0
2017-Aug-10 11:29N 54°37' W 005°54'0 0.0
2017-Aug-10 10:59N 54°37' W 005°54'0 0.0
2017-Aug-10 10:11N 54°37' W 005°54'0 0.0
2017-Aug-10 09:53N 54°37' W 005°54'0 0.0
2017-Aug-10 09:29N 54°37' W 005°54'0 0.0
2017-Aug-10 08:56N 54°37' W 005°54'0 0.0
2017-Aug-10 08:26N 54°37' W 005°54'0 0.0
2017-Aug-10 07:50N 54°37' W 005°54'0 0.0
2017-Aug-10 07:08N 54°37' W 005°54'0 0.0
2017-Aug-10 06:56N 54°37' W 005°54'0 0.0
2017-Aug-10 06:29N 54°37' W 005°54'0 0.0
2017-Aug-10 05:56N 54°37' W 005°54'1 1.9
2017-Aug-10 05:29N 54°38' W 005°53'3 7.3
2017-Aug-10 05:00N 54°41' W 005°49'4 7.9
2017-Aug-10 04:30N 54°42' W 005°43'510.8
2017-Aug-10 04:00N 54°47' W 005°38'611.4
2017-Aug-10 03:30N 54°52' W 005°34'611.2
2017-Aug-10 03:00N 54°57' W 005°29'510.8
2017-Aug-10 02:30N 55°02' W 005°25'611.2
2017-Aug-10 01:58N 55°07' W 005°19'11 0.6
2017-Aug-09 07:49N 55°16' W 005°28'617.7
2017-Aug-09 07:28N 55°14' W 005°39'817.7
2017-Aug-09 07:00N 55°14' W 005°53'816.1
2017-Aug-09 06:30N 55°19' W 006°05'815.7
2017-Aug-09 06:00N 55°23' W 006°17'815.5
2017-Aug-09 05:30N 55°29' W 006°26'815.1
2017-Aug-09 05:00N 55°35' W 006°34'714.2
2017-Aug-09 04:30N 55°41' W 006°41'714.0
2017-Aug-09 04:00N 55°46' W 006°49'144 6.0
2017-Aug-08 03:52N 58°04' W 005°30'612.0
2017-Aug-08 03:22N 58°09' W 005°29'1512.1
2017-Aug-08 02:09N 58°24' W 005°20'212.1
2017-Aug-08 02:00N 58°25' W 005°19'3411.1
2017-Aug-07 22:55N 58°41' W 004°21'511.1
2017-Aug-07 22:30N 58°41' W 004°12'611.1
2017-Aug-07 22:00N 58°41' W 004°01'611.7
2017-Aug-07 21:30N 58°42' W 003°50'611.7
2017-Aug-07 21:00N 58°42' W 003°39'612.0
2017-Aug-07 20:30N 58°42' W 003°27'612.6
2017-Aug-07 20:00N 58°43' W 003°15'510.9
2017-Aug-07 19:30N 58°43' W 003°04'510.7
2017-Aug-07 19:00N 58°43' W 002°54'713.9
2017-Aug-07 18:30N 58°48' W 002°44'815.3
2017-Aug-07 18:00N 58°54' W 002°36'714.6
2017-Aug-07 17:30N 58°60' W 002°45'612.1
2017-Aug-07 17:00N 59°01' W 002°57'2 3.0
2017-Aug-07 16:28N 58°60' W 002°58'0 0.0
2017-Aug-07 15:58N 58°60' W 002°58'0 0.0
2017-Aug-07 15:28N 59°00' W 002°58'0 0.0
2017-Aug-07 14:58N 59°00' W 002°58'0 0.0
2017-Aug-07 14:28N 58°60' W 002°58'0 0.0
2017-Aug-07 13:58N 58°60' W 002°58'0 0.0
2017-Aug-07 13:28N 58°60' W 002°58'0 0.0
2017-Aug-07 12:58N 59°00' W 002°58'0 0.0
2017-Aug-07 12:28N 58°60' W 002°58'0 0.0
2017-Aug-07 11:58N 58°60' W 002°58'0 0.0
2017-Aug-07 11:28N 58°60' W 002°58'0 0.0
2017-Aug-07 10:58N 58°60' W 002°58'0 0.0
2017-Aug-07 10:30N 59°00' W 002°58'2 4.9
2017-Aug-07 10:00N 59°01' W 002°54'611.4
2017-Aug-07 09:30N 58°60' W 002°43'813.3
2017-Aug-07 08:54N 58°53' W 002°36'615.4
2017-Aug-07 08:30N 58°47' W 002°32'7416.3
2017-Aug-07 03:56N 57°38' W 001°43'716.2
2017-Aug-07 03:30N 57°31' W 001°39'815.7
2017-Aug-07 03:00N 57°23' W 001°44'815.5
2017-Aug-07 02:30N 57°16' W 001°49'  
Track history (hours):
 
Tides and Currents Weather Stations Pressure Air Temp Water Temp Dewpoint Dewpoint Depression Visibility Wind Speed Wind Dir Waves Ship Positions

Ocean Majesty

Last reported at 2017-Aug-17 02:20 UTC. Time now 2017-Aug-21 19:21 UTC.
Position N 55°00' E 006°27'.

Length 136 m; draft 6.3 m.

Type: Passenger vessel. MMSI: 255717000.

Date/timePositionNaut miles runAvg speedWind from/ knotsBaromVisibWave heightAir tempDewpointWater temp
2017-Aug-17 02:20N 55°00' E 006°27'615.4
2017-Aug-17 01:58N 54°56' E 006°33'715.4
2017-Aug-17 01:30N 54°50' E 006°41'815.4
2017-Aug-17 01:00N 54°44' E 006°49'815.5
2017-Aug-17 00:30N 54°38' E 006°57'815.6
2017-Aug-17 00:00N 54°32' E 007°06'3316.1
2017-Aug-16 21:59N 54°08' E 007°44'816.8
2017-Aug-16 21:30N 54°04' E 007°56'816.9
2017-Aug-16 21:01N 54°01' E 008°09'714.1
2017-Aug-16 20:30N 53°60' E 008°21'917.2
2017-Aug-16 20:00N 53°58' E 008°35'815.0
2017-Aug-16 19:30N 53°52' E 008°43'612.2
2017-Aug-16 19:00N 53°51' E 008°53'713.2
2017-Aug-16 18:30N 53°52' E 009°04'611.5
2017-Aug-16 18:00N 53°53' E 009°14'611.9
2017-Aug-16 17:30N 53°49' E 009°22'612.3
2017-Aug-16 17:00N 53°44' E 009°27'611.8
2017-Aug-16 16:30N 53°39' E 009°31'612.2
2017-Aug-16 16:00N 53°34' E 009°39'611.1
2017-Aug-16 15:31N 53°33' E 009°48'4 8.9
2017-Aug-16 15:01N 53°32' E 009°55'1 1.0
2017-Aug-16 14:26N 53°33' E 009°56'0 0.0
2017-Aug-16 13:59N 53°33' E 009°56'0 0.0
2017-Aug-16 13:29N 53°33' E 009°56'0 0.0
2017-Aug-16 12:59N 53°33' E 009°56'0 0.0
2017-Aug-16 12:29N 53°33' E 009°56'0 0.0
2017-Aug-16 11:59N 53°33' E 009°56'0 0.0
2017-Aug-16 11:29N 53°33' E 009°56'0 0.0
2017-Aug-16 10:59N 53°33' E 009°56'0 0.0
2017-Aug-16 10:29N 53°33' E 009°56'0 0.0
2017-Aug-16 09:59N 53°33' E 009°56'0 0.0
2017-Aug-16 09:29N 53°33' E 009°56'0 0.0
2017-Aug-16 08:59N 53°33' E 009°56'0 0.0
2017-Aug-16 08:29N 53°33' E 009°56'0 0.0
2017-Aug-16 07:59N 53°33' E 009°56'0 0.0
2017-Aug-16 07:29N 53°33' E 009°56'0 0.0
2017-Aug-16 06:59N 53°33' E 009°56'0 0.0
2017-Aug-16 06:29N 53°33' E 009°56'0 0.0
2017-Aug-16 05:59N 53°33' E 009°56'0 0.1
2017-Aug-16 05:30N 53°33' E 009°56'3 6.7
2017-Aug-16 05:00N 53°33' E 009°51'5 9.4
2017-Aug-16 04:31N 53°34' E 009°43'611.6
2017-Aug-16 04:01N 53°37' E 009°34'611.2
2017-Aug-16 03:30N 53°41' E 009°30'612.0
2017-Aug-16 03:00N 53°46' E 009°24'612.1
2017-Aug-16 02:31N 53°51' E 009°18'612.3
2017-Aug-16 02:01N 53°53' E 009°08'611.4
2017-Aug-16 01:31N 53°51' E 008°59'713.4
2017-Aug-16 01:00N 53°50' E 008°48'611.2
2017-Aug-16 00:30N 53°54' E 008°41'713.0
2017-Aug-16 00:00N 53°58' E 008°32'713.5
2017-Aug-15 23:30N 53°60' E 008°21'611.6
2017-Aug-15 23:00N 53°60' E 008°11'612.7
2017-Aug-15 22:30N 53°58' E 008°00'713.3
2017-Aug-15 22:00N 53°56' E 007°49'612.9
2017-Aug-15 21:30N 53°55' E 007°39'612.7
2017-Aug-15 21:00N 53°53' E 007°28'6912.8
2017-Aug-15 15:36N 53°35' E 005°36'313.3
2017-Aug-15 15:22N 53°34' E 005°30'513.1
2017-Aug-15 15:00N 53°33' E 005°23'713.2
2017-Aug-15 14:30N 53°31' E 005°12'713.7
2017-Aug-15 14:01N 53°29' E 005°02'1213.8
2017-Aug-15 13:08N 53°24' E 004°43'213.7
2017-Aug-15 12:59N 53°22' E 004°41'913.0
2017-Aug-15 12:19N 53°14' E 004°35'412.8
2017-Aug-15 12:00N 53°11' E 004°31'612.6
2017-Aug-15 11:30N 53°05' E 004°27'612.6
2017-Aug-15 11:00N 52°60' E 004°22'612.8
2017-Aug-15 10:30N 52°54' E 004°17'812.7
2017-Aug-15 09:52N 52°47' E 004°09'512.8
2017-Aug-15 09:27N 52°43' E 004°04'612.9
2017-Aug-15 08:59N 52°39' E 003°56'612.9
2017-Aug-15 08:30N 52°35' E 003°49'713.0
2017-Aug-15 08:00N 52°30' E 003°42'713.7
2017-Aug-15 07:30N 52°25' E 003°34'713.8
2017-Aug-15 07:00N 52°20' E 003°26'913.8
2017-Aug-15 06:22N 52°14' E 003°16'1313.6
2017-Aug-15 05:24N 52°05' E 002°60'1213.0
2017-Aug-15 04:28N 51°59' E 002°43'612.6
2017-Aug-15 04:00N 51°57' E 002°34'711.6
2017-Aug-15 03:25N 51°54' E 002°24'510.9
2017-Aug-15 03:00N 51°51' E 002°19'510.6
2017-Aug-15 02:29N 51°47' E 002°13'510.2
2017-Aug-15 02:00N 51°43' E 002°08'510.0
2017-Aug-15 01:30N 51°39' E 002°03'1010.3
2017-Aug-15 00:30N 51°33' E 001°50'510.6
2017-Aug-15 00:00N 51°30' E 001°43'611.2
2017-Aug-14 23:30N 51°28' E 001°34'4 9.0
2017-Aug-14 23:00N 51°24' E 001°30'4 7.6
2017-Aug-14 22:30N 51°27' E 001°27'815.6
2017-Aug-14 22:00N 51°29' E 001°14'713.9
2017-Aug-14 21:31N 51°30' E 001°03'714.6
2017-Aug-14 21:00N 51°29' E 000°51'35 2.3
2017-Aug-14 06:03N 51°30' W 000°05'0 0.0
2017-Aug-14 05:57N 51°30' W 000°05'0 0.0
2017-Aug-14 05:27N 51°30' W 000°05'0 0.0
2017-Aug-14 04:45N 51°30' W 000°05'0 0.0
2017-Aug-14 04:27N 51°30' W 000°05'0 0.0
2017-Aug-14 03:57N 51°30' W 000°05'0 0.0
2017-Aug-14 03:27N 51°30' W 000°05'0 0.0
2017-Aug-14 02:51N 51°30' W 000°05'39 2.9
2017-Aug-13 13:24N 51°29' E 000°57'512.9
2017-Aug-13 13:01N 51°30' E 001°06'712.9
2017-Aug-13 12:30N 51°29' E 001°16'612.2
2017-Aug-13 12:01N 51°28' E 001°26'5 9.1
2017-Aug-13 11:31N 51°25' E 001°30'4 7.7
2017-Aug-13 11:01N 51°22' E 001°35'611.6
2017-Aug-13 10:31N 51°16' E 001°37'510.9
2017-Aug-13 10:01N 51°11' E 001°36'510.8
2017-Aug-13 09:31N 51°06' E 001°39'611.9
2017-Aug-13 09:00N 51°01' E 001°33'611.9
2017-Aug-13 08:31N 50°56' E 001°28'5612.2
2017-Aug-13 03:57N 50°24' E 000°17'612.9
2017-Aug-13 03:31N 50°22' E 000°08'814.7
2017-Aug-13 02:58N 50°21' W 000°04'816.1
2017-Aug-13 02:30N 50°20' W 000°16'3617.8
2017-Aug-13 00:28N 50°16' W 001°12'919.0
2017-Aug-13 00:00N 50°16' W 001°26'1019.4
2017-Aug-12 23:31N 50°15' W 001°41'3319.2
2017-Aug-12 21:47N 50°13' W 002°33'618.1
2017-Aug-12 21:26N 50°12' W 002°43'817.7
2017-Aug-12 21:00N 50°12' W 002°54'917.4
2017-Aug-12 20:30N 50°12' W 003°08'917.0
2017-Aug-12 20:00N 50°10' W 003°21'816.9
2017-Aug-12 19:30N 50°10' W 003°34'816.8
2017-Aug-12 19:00N 50°09' W 003°47'816.7
2017-Aug-12 18:31N 50°12' W 003°60'816.2
2017-Aug-12 18:00N 50°14' W 004°12'816.0
2017-Aug-12 17:30N 50°16' W 004°24'815.5
2017-Aug-12 17:00N 50°18' W 004°36'2 0.3
2017-Aug-12 09:01N 50°20' W 004°38'0 0.2
2017-Aug-12 08:57N 50°20' W 004°38'2 4.6
2017-Aug-12 08:30N 50°18' W 004°39'510.5
2017-Aug-12 08:00N 50°13' W 004°42'612.6
2017-Aug-12 07:30N 50°08' W 004°48'812.8
2017-Aug-12 06:55N 50°02' W 004°54'612.6
2017-Aug-12 06:28N 49°57' W 004°60'613.1
2017-Aug-12 05:59N 49°56' W 005°09'1614.6
2017-Aug-12 04:54N 49°54' W 005°34'614.2
2017-Aug-12 04:28N 49°54' W 005°43'1113.3
2017-Aug-12 03:38N 49°56' W 005°60'813.6
2017-Aug-12 03:02N 50°04' W 006°00'113.6
2017-Aug-12 02:58N 50°05' W 006°00'613.1
2017-Aug-12 02:30N 50°11' W 006°01'612.8
2017-Aug-12 02:00N 50°18' W 006°01'1713.4
2017-Aug-12 00:45N 50°34' W 006°01'314.1
2017-Aug-12 00:31N 50°38' W 006°00'1014.0
2017-Aug-11 23:47N 50°48' W 005°60'613.7
2017-Aug-11 23:21N 50°54' W 005°60'2014.0
2017-Aug-11 21:56N 51°14' W 005°59'5013.9
2017-Aug-11 18:19N 52°04' W 005°52'515.3
2017-Aug-11 18:01N 52°08' W 005°51'815.5
2017-Aug-11 17:30N 52°16' W 005°50'815.9
2017-Aug-11 17:00N 52°24' W 005°50'916.4
2017-Aug-11 16:29N 52°33' W 005°51'79 5.4
2017-Aug-11 01:49N 53°52' W 005°41'513.3
2017-Aug-11 01:28N 53°56' W 005°38'813.1
2017-Aug-11 00:49N 54°04' W 005°33'412.9
2017-Aug-11 00:31N 54°08' W 005°30'612.9
2017-Aug-11 00:01N 54°14' W 005°26'612.7
2017-Aug-10 23:30N 54°19' W 005°22'612.2
2017-Aug-10 23:00N 54°25' W 005°19'613.0
2017-Aug-10 22:31N 54°32' W 005°22'713.6
2017-Aug-10 22:00N 54°38' W 005°25'612.8
2017-Aug-10 21:30N 54°43' W 005°32'613.0
2017-Aug-10 21:01N 54°42' W 005°43'611.2
2017-Aug-10 20:30N 54°39' W 005°51'2 3.0
2017-Aug-10 19:41N 54°37' W 005°54'0 0.0
2017-Aug-10 19:29N 54°37' W 005°54'0 0.0
2017-Aug-10 18:08N 54°37' W 005°54'0 0.0
2017-Aug-10 17:53N 54°37' W 005°54'0 0.0
2017-Aug-10 17:11N 54°37' W 005°54'0 0.0
2017-Aug-10 16:56N 54°37' W 005°54'0 0.0
2017-Aug-10 16:23N 54°37' W 005°54'0 0.0
2017-Aug-10 15:56N 54°37' W 005°54'0 0.0
2017-Aug-10 15:26N 54°37' W 005°54'0 0.0
2017-Aug-10 14:56N 54°37' W 005°54'0 0.0
2017-Aug-10 14:14N 54°37' W 005°54'0 0.0
2017-Aug-10 13:44N 54°37' W 005°54'0 0.0
2017-Aug-10 13:29N 54°37' W 005°54'0 0.0
2017-Aug-10 12:50N 54°37' W 005°54'0 0.0
2017-Aug-10 12:29N 54°37' W 005°54'0 0.0
2017-Aug-10 11:29N 54°37' W 005°54'0 0.0
2017-Aug-10 10:59N 54°37' W 005°54'0 0.0
2017-Aug-10 10:11N 54°37' W 005°54'0 0.0
2017-Aug-10 09:53N 54°37' W 005°54'0 0.0
2017-Aug-10 09:29N 54°37' W 005°54'0 0.0
2017-Aug-10 08:56N 54°37' W 005°54'0 0.0
2017-Aug-10 08:26N 54°37' W 005°54'0 0.0
2017-Aug-10 07:50N 54°37' W 005°54'0 0.0
2017-Aug-10 07:08N 54°37' W 005°54'0 0.0
2017-Aug-10 06:56N 54°37' W 005°54'0 0.0
2017-Aug-10 06:29N 54°37' W 005°54'0 0.0
2017-Aug-10 05:56N 54°37' W 005°54'1 1.9
2017-Aug-10 05:29N 54°38' W 005°53'3 7.3
2017-Aug-10 05:00N 54°41' W 005°49'4 7.9
2017-Aug-10 04:30N 54°42' W 005°43'510.8
2017-Aug-10 04:00N 54°47' W 005°38'611.4
2017-Aug-10 03:30N 54°52' W 005°34'611.2
2017-Aug-10 03:00N 54°57' W 005°29'510.8
2017-Aug-10 02:30N 55°02' W 005°25'611.2
2017-Aug-10 01:58N 55°07' W 005°19'11 0.6
2017-Aug-09 07:49N 55°16' W 005°28'617.7
2017-Aug-09 07:28N 55°14' W 005°39'817.7
2017-Aug-09 07:00N 55°14' W 005°53'816.1
2017-Aug-09 06:30N 55°19' W 006°05'815.7
2017-Aug-09 06:00N 55°23' W 006°17'815.5
2017-Aug-09 05:30N 55°29' W 006°26'815.1
2017-Aug-09 05:00N 55°35' W 006°34'714.2
2017-Aug-09 04:30N 55°41' W 006°41'714.0
2017-Aug-09 04:00N 55°46' W 006°49'144 6.0
2017-Aug-08 03:52N 58°04' W 005°30'612.0
2017-Aug-08 03:22N 58°09' W 005°29'1512.1
2017-Aug-08 02:09N 58°24' W 005°20'212.1
2017-Aug-08 02:00N 58°25' W 005°19'3411.1
2017-Aug-07 22:55N 58°41' W 004°21'511.1
2017-Aug-07 22:30N 58°41' W 004°12'611.1
2017-Aug-07 22:00N 58°41' W 004°01'611.7
2017-Aug-07 21:30N 58°42' W 003°50'611.7
2017-Aug-07 21:00N 58°42' W 003°39'612.0
2017-Aug-07 20:30N 58°42' W 003°27'612.6
2017-Aug-07 20:00N 58°43' W 003°15'510.9
2017-Aug-07 19:30N 58°43' W 003°04'510.7
2017-Aug-07 19:00N 58°43' W 002°54'713.9
2017-Aug-07 18:30N 58°48' W 002°44'815.3
2017-Aug-07 18:00N 58°54' W 002°36'714.6
2017-Aug-07 17:30N 58°60' W 002°45'612.1
2017-Aug-07 17:00N 59°01' W 002°57'2 3.0
2017-Aug-07 16:28N 58°60' W 002°58'0 0.0
2017-Aug-07 15:58N 58°60' W 002°58'0 0.0
2017-Aug-07 15:28N 59°00' W 002°58'0 0.0
2017-Aug-07 14:58N 59°00' W 002°58'0 0.0
2017-Aug-07 14:28N 58°60' W 002°58'0 0.0
2017-Aug-07 13:58N 58°60' W 002°58'0 0.0
2017-Aug-07 13:28N 58°60' W 002°58'0 0.0
2017-Aug-07 12:58N 59°00' W 002°58'0 0.0
2017-Aug-07 12:28N 58°60' W 002°58'0 0.0
2017-Aug-07 11:58N 58°60' W 002°58'0 0.0
2017-Aug-07 11:28N 58°60' W 002°58'0 0.0
2017-Aug-07 10:58N 58°60' W 002°58'0 0.0
2017-Aug-07 10:30N 59°00' W 002°58'2 4.9
2017-Aug-07 10:00N 59°01' W 002°54'611.4
2017-Aug-07 09:30N 58°60' W 002°43'813.3
2017-Aug-07 08:54N 58°53' W 002°36'615.4
2017-Aug-07 08:30N 58°47' W 002°32'7416.3
2017-Aug-07 03:56N 57°38' W 001°43'716.2
2017-Aug-07 03:30N 57°31' W 001°39'815.7
2017-Aug-07 03:00N 57°23' W 001°44'815.5
2017-Aug-07 02:30N 57°16' W 001°49'  

Dump ship's entire track history